sensor_id;sensor_type;location;lat;lon;timestamp;P1;durP1;ratioP1;P2;durP2;ratioP2
13704;SDS011;6924;52.122;9.952;2024-01-30T00:02:22;5.67;;;5.07;;
13704;SDS011;6924;52.122;9.952;2024-01-30T00:04:49;7.00;;;4.73;;
13704;SDS011;6924;52.122;9.952;2024-01-30T00:07:16;5.60;;;4.47;;
13704;SDS011;6924;52.122;9.952;2024-01-30T00:09:43;4.93;;;4.43;;
13704;SDS011;6924;52.122;9.952;2024-01-30T00:12:12;5.23;;;4.70;;
13704;SDS011;6924;52.122;9.952;2024-01-30T00:14:38;5.83;;;4.57;;
13704;SDS011;6924;52.122;9.952;2024-01-30T00:17:08;5.73;;;4.87;;
13704;SDS011;6924;52.122;9.952;2024-01-30T00:19:34;6.83;;;4.73;;
13704;SDS011;6924;52.122;9.952;2024-01-30T00:22:01;6.13;;;4.37;;
13704;SDS011;6924;52.122;9.952;2024-01-30T00:24:28;6.20;;;3.93;;
13704;SDS011;6924;52.122;9.952;2024-01-30T00:26:55;7.03;;;4.57;;
13704;SDS011;6924;52.122;9.952;2024-01-30T00:29:21;4.40;;;4.00;;
13704;SDS011;6924;52.122;9.952;2024-01-30T00:31:48;5.40;;;4.90;;
13704;SDS011;6924;52.122;9.952;2024-01-30T00:34:14;5.73;;;4.80;;
13704;SDS011;6924;52.122;9.952;2024-01-30T00:36:41;8.20;;;5.13;;
13704;SDS011;6924;52.122;9.952;2024-01-30T00:39:07;5.73;;;5.23;;
13704;SDS011;6924;52.122;9.952;2024-01-30T00:41:36;6.43;;;5.20;;
13704;SDS011;6924;52.122;9.952;2024-01-30T00:44:02;4.57;;;4.10;;
13704;SDS011;6924;52.122;9.952;2024-01-30T00:46:29;4.83;;;4.10;;
13704;SDS011;6924;52.122;9.952;2024-01-30T00:48:55;6.40;;;4.90;;
13704;SDS011;6924;52.122;9.952;2024-01-30T00:51:21;7.30;;;4.83;;
13704;SDS011;6924;52.122;9.952;2024-01-30T00:53:48;8.40;;;6.03;;
13704;SDS011;6924;52.122;9.952;2024-01-30T00:56:14;5.70;;;5.20;;
13704;SDS011;6924;52.122;9.952;2024-01-30T00:58:44;6.50;;;4.67;;
13704;SDS011;6924;52.122;9.952;2024-01-30T01:01:10;6.60;;;4.90;;
13704;SDS011;6924;52.122;9.952;2024-01-30T01:03:38;5.47;;;4.97;;
13704;SDS011;6924;52.122;9.952;2024-01-30T01:06:05;5.93;;;5.27;;
13704;SDS011;6924;52.122;9.952;2024-01-30T01:08:32;5.97;;;5.40;;
13704;SDS011;6924;52.122;9.952;2024-01-30T01:10:58;6.17;;;5.20;;
13704;SDS011;6924;52.122;9.952;2024-01-30T01:13:25;6.67;;;5.20;;
13704;SDS011;6924;52.122;9.952;2024-01-30T01:15:52;5.50;;;5.00;;
13704;SDS011;6924;52.122;9.952;2024-01-30T01:18:19;7.10;;;5.70;;
13704;SDS011;6924;52.122;9.952;2024-01-30T01:20:46;7.27;;;5.33;;
13704;SDS011;6924;52.122;9.952;2024-01-30T01:23:13;6.47;;;5.87;;
13704;SDS011;6924;52.122;9.952;2024-01-30T01:25:39;7.93;;;5.10;;
13704;SDS011;6924;52.122;9.952;2024-01-30T01:28:05;5.87;;;5.30;;
13704;SDS011;6924;52.122;9.952;2024-01-30T01:30:32;7.53;;;5.47;;
13704;SDS011;6924;52.122;9.952;2024-01-30T01:33:00;8.83;;;6.73;;
13704;SDS011;6924;52.122;9.952;2024-01-30T01:35:27;6.33;;;5.73;;
13704;SDS011;6924;52.122;9.952;2024-01-30T01:37:53;7.37;;;4.67;;
13704;SDS011;6924;52.122;9.952;2024-01-30T01:40:21;6.50;;;5.43;;
13704;SDS011;6924;52.122;9.952;2024-01-30T01:42:49;6.07;;;5.50;;
13704;SDS011;6924;52.122;9.952;2024-01-30T01:45:16;6.93;;;4.97;;
13704;SDS011;6924;52.122;9.952;2024-01-30T01:47:42;7.40;;;5.30;;
13704;SDS011;6924;52.122;9.952;2024-01-30T01:50:12;7.40;;;4.63;;
13704;SDS011;6924;52.122;9.952;2024-01-30T01:52:39;4.97;;;4.50;;
13704;SDS011;6924;52.122;9.952;2024-01-30T01:55:07;5.57;;;5.07;;
13704;SDS011;6924;52.122;9.952;2024-01-30T01:57:33;12.83;;;4.87;;
13704;SDS011;6924;52.122;9.952;2024-01-30T02:00:00;5.80;;;5.20;;
13704;SDS011;6924;52.122;9.952;2024-01-30T02:02:29;6.17;;;5.30;;
13704;SDS011;6924;52.122;9.952;2024-01-30T02:04:56;6.07;;;5.00;;
13704;SDS011;6924;52.122;9.952;2024-01-30T02:07:24;6.67;;;5.33;;
13704;SDS011;6924;52.122;9.952;2024-01-30T02:09:50;5.37;;;4.67;;
13704;SDS011;6924;52.122;9.952;2024-01-30T02:12:17;4.97;;;4.57;;
13704;SDS011;6924;52.122;9.952;2024-01-30T02:14:44;6.20;;;4.43;;
13704;SDS011;6924;52.122;9.952;2024-01-30T02:17:11;5.50;;;4.90;;
13704;SDS011;6924;52.122;9.952;2024-01-30T02:19:37;5.50;;;4.60;;
13704;SDS011;6924;52.122;9.952;2024-01-30T02:22:05;6.20;;;4.80;;
13704;SDS011;6924;52.122;9.952;2024-01-30T02:24:32;5.77;;;5.17;;
13704;SDS011;6924;52.122;9.952;2024-01-30T02:26:58;7.67;;;4.80;;
13704;SDS011;6924;52.122;9.952;2024-01-30T02:29:25;6.30;;;4.60;;
13704;SDS011;6924;52.122;9.952;2024-01-30T02:31:51;6.40;;;5.13;;
13704;SDS011;6924;52.122;9.952;2024-01-30T02:34:18;5.83;;;4.43;;
13704;SDS011;6924;52.122;9.952;2024-01-30T02:36:45;6.13;;;5.10;;
13704;SDS011;6924;52.122;9.952;2024-01-30T02:39:13;5.37;;;4.87;;
13704;SDS011;6924;52.122;9.952;2024-01-30T02:41:39;4.80;;;4.40;;
13704;SDS011;6924;52.122;9.952;2024-01-30T02:44:06;4.73;;;4.33;;
13704;SDS011;6924;52.122;9.952;2024-01-30T02:46:32;5.60;;;4.97;;
13704;SDS011;6924;52.122;9.952;2024-01-30T02:48:59;6.13;;;4.27;;
13704;SDS011;6924;52.122;9.952;2024-01-30T02:51:25;5.73;;;4.90;;
13704;SDS011;6924;52.122;9.952;2024-01-30T02:53:51;5.00;;;4.47;;
13704;SDS011;6924;52.122;9.952;2024-01-30T02:56:19;5.00;;;4.50;;
13704;SDS011;6924;52.122;9.952;2024-01-30T02:58:46;5.10;;;4.60;;
13704;SDS011;6924;52.122;9.952;2024-01-30T03:01:12;5.33;;;4.70;;
13704;SDS011;6924;52.122;9.952;2024-01-30T03:03:38;5.00;;;4.50;;
13704;SDS011;6924;52.122;9.952;2024-01-30T03:06:05;4.70;;;4.27;;
13704;SDS011;6924;52.122;9.952;2024-01-30T03:08:32;6.60;;;4.83;;
13704;SDS011;6924;52.122;9.952;2024-01-30T03:10:59;5.40;;;4.90;;
13704;SDS011;6924;52.122;9.952;2024-01-30T03:13:27;6.37;;;4.67;;
13704;SDS011;6924;52.122;9.952;2024-01-30T03:15:54;6.20;;;4.90;;
13704;SDS011;6924;52.122;9.952;2024-01-30T03:18:20;5.80;;;5.30;;
13704;SDS011;6924;52.122;9.952;2024-01-30T03:20:47;6.17;;;5.07;;
13704;SDS011;6924;52.122;9.952;2024-01-30T03:23:13;5.07;;;4.40;;
13704;SDS011;6924;52.122;9.952;2024-01-30T03:25:39;5.60;;;4.90;;
13704;SDS011;6924;52.122;9.952;2024-01-30T03:28:06;8.57;;;5.07;;
13704;SDS011;6924;52.122;9.952;2024-01-30T03:30:34;4.87;;;4.37;;
13704;SDS011;6924;52.122;9.952;2024-01-30T03:33:00;6.67;;;5.17;;
13704;SDS011;6924;52.122;9.952;2024-01-30T03:35:27;10.87;;;5.50;;
13704;SDS011;6924;52.122;9.952;2024-01-30T03:37:53;5.20;;;4.70;;
13704;SDS011;6924;52.122;9.952;2024-01-30T03:40:21;7.93;;;4.73;;
13704;SDS011;6924;52.122;9.952;2024-01-30T03:42:48;6.50;;;5.37;;
13704;SDS011;6924;52.122;9.952;2024-01-30T03:45:17;5.53;;;4.77;;
13704;SDS011;6924;52.122;9.952;2024-01-30T03:47:46;5.33;;;4.83;;
13704;SDS011;6924;52.122;9.952;2024-01-30T03:50:12;6.80;;;5.13;;
13704;SDS011;6924;52.122;9.952;2024-01-30T03:52:39;5.07;;;3.93;;
13704;SDS011;6924;52.122;9.952;2024-01-30T03:55:05;6.10;;;5.20;;
13704;SDS011;6924;52.122;9.952;2024-01-30T03:57:32;4.87;;;4.40;;
13704;SDS011;6924;52.122;9.952;2024-01-30T03:59:58;4.97;;;4.50;;
13704;SDS011;6924;52.122;9.952;2024-01-30T04:02:25;7.27;;;4.83;;
13704;SDS011;6924;52.122;9.952;2024-01-30T04:04:53;5.53;;;4.50;;
13704;SDS011;6924;52.122;9.952;2024-01-30T04:07:19;5.70;;;5.10;;
13704;SDS011;6924;52.122;9.952;2024-01-30T04:09:45;5.53;;;4.90;;
13704;SDS011;6924;52.122;9.952;2024-01-30T04:12:12;5.10;;;4.60;;
13704;SDS011;6924;52.122;9.952;2024-01-30T04:14:39;5.63;;;5.00;;
13704;SDS011;6924;52.122;9.952;2024-01-30T04:17:05;6.53;;;5.27;;
13704;SDS011;6924;52.122;9.952;2024-01-30T04:19:32;5.43;;;4.67;;
13704;SDS011;6924;52.122;9.952;2024-01-30T04:22:00;6.33;;;5.53;;
13704;SDS011;6924;52.122;9.952;2024-01-30T04:24:26;5.33;;;4.90;;
13704;SDS011;6924;52.122;9.952;2024-01-30T04:26:52;7.47;;;4.63;;
13704;SDS011;6924;52.122;9.952;2024-01-30T04:29:19;5.27;;;4.77;;
13704;SDS011;6924;52.122;9.952;2024-01-30T04:31:45;6.37;;;4.90;;
13704;SDS011;6924;52.122;9.952;2024-01-30T04:34:12;6.07;;;5.13;;
13704;SDS011;6924;52.122;9.952;2024-01-30T04:36:38;7.00;;;5.03;;
13704;SDS011;6924;52.122;9.952;2024-01-30T04:39:06;5.70;;;5.20;;
13704;SDS011;6924;52.122;9.952;2024-01-30T04:41:33;5.27;;;4.73;;
13704;SDS011;6924;52.122;9.952;2024-01-30T04:44:00;7.77;;;5.40;;
13704;SDS011;6924;52.122;9.952;2024-01-30T04:46:26;8.37;;;5.53;;
13704;SDS011;6924;52.122;9.952;2024-01-30T04:48:53;8.17;;;5.47;;
13704;SDS011;6924;52.122;9.952;2024-01-30T04:51:19;5.27;;;4.77;;
13704;SDS011;6924;52.122;9.952;2024-01-30T04:53:46;7.30;;;5.40;;
13704;SDS011;6924;52.122;9.952;2024-01-30T04:56:13;6.20;;;5.60;;
13704;SDS011;6924;52.122;9.952;2024-01-30T04:58:40;5.53;;;4.87;;
13704;SDS011;6924;52.122;9.952;2024-01-30T05:01:06;5.57;;;5.07;;
13704;SDS011;6924;52.122;9.952;2024-01-30T05:03:33;6.13;;;5.60;;
13704;SDS011;6924;52.122;9.952;2024-01-30T05:06:00;6.90;;;5.30;;
13704;SDS011;6924;52.122;9.952;2024-01-30T05:08:26;6.27;;;5.67;;
13704;SDS011;6924;52.122;9.952;2024-01-30T05:10:53;6.17;;;4.83;;
13704;SDS011;6924;52.122;9.952;2024-01-30T05:13:20;6.60;;;5.10;;
13704;SDS011;6924;52.122;9.952;2024-01-30T05:15:47;7.27;;;5.77;;
13704;SDS011;6924;52.122;9.952;2024-01-30T05:18:13;7.30;;;6.10;;
13704;SDS011;6924;52.122;9.952;2024-01-30T05:20:40;6.27;;;5.17;;
13704;SDS011;6924;52.122;9.952;2024-01-30T05:23:06;5.97;;;5.37;;
13704;SDS011;6924;52.122;9.952;2024-01-30T05:25:33;6.00;;;5.40;;
13704;SDS011;6924;52.122;9.952;2024-01-30T05:27:59;8.70;;;5.60;;
13704;SDS011;6924;52.122;9.952;2024-01-30T05:30:27;6.60;;;5.17;;
13704;SDS011;6924;52.122;9.952;2024-01-30T05:32:53;6.27;;;5.67;;
13704;SDS011;6924;52.122;9.952;2024-01-30T05:35:20;9.43;;;5.73;;
13704;SDS011;6924;52.122;9.952;2024-01-30T05:37:47;7.37;;;5.57;;
13704;SDS011;6924;52.122;9.952;2024-01-30T05:40:15;5.70;;;4.83;;
13704;SDS011;6924;52.122;9.952;2024-01-30T05:42:41;6.33;;;5.73;;
13704;SDS011;6924;52.122;9.952;2024-01-30T05:45:08;6.90;;;5.70;;
13704;SDS011;6924;52.122;9.952;2024-01-30T05:47:36;6.87;;;5.33;;
13704;SDS011;6924;52.122;9.952;2024-01-30T05:50:03;7.30;;;6.00;;
13704;SDS011;6924;52.122;9.952;2024-01-30T05:52:30;8.80;;;5.90;;
13704;SDS011;6924;52.122;9.952;2024-01-30T05:54:57;9.10;;;5.80;;
13704;SDS011;6924;52.122;9.952;2024-01-30T05:57:25;6.90;;;4.77;;
13704;SDS011;6924;52.122;9.952;2024-01-30T05:59:52;6.60;;;5.57;;
13704;SDS011;6924;52.122;9.952;2024-01-30T06:02:18;6.63;;;5.93;;
13704;SDS011;6924;52.122;9.952;2024-01-30T06:04:46;7.60;;;5.60;;
13704;SDS011;6924;52.122;9.952;2024-01-30T06:07:12;5.97;;;5.37;;
13704;SDS011;6924;52.122;9.952;2024-01-30T06:09:39;5.43;;;4.93;;
13704;SDS011;6924;52.122;9.952;2024-01-30T06:12:06;9.23;;;5.93;;
13704;SDS011;6924;52.122;9.952;2024-01-30T06:14:32;8.33;;;5.10;;
13704;SDS011;6924;52.122;9.952;2024-01-30T06:16:59;6.10;;;4.57;;
13704;SDS011;6924;52.122;9.952;2024-01-30T06:19:25;6.23;;;5.63;;
13704;SDS011;6924;52.122;9.952;2024-01-30T06:21:53;5.97;;;5.40;;
13704;SDS011;6924;52.122;9.952;2024-01-30T06:24:19;5.20;;;4.70;;
13704;SDS011;6924;52.122;9.952;2024-01-30T06:26:46;9.20;;;5.47;;
13704;SDS011;6924;52.122;9.952;2024-01-30T06:29:12;8.20;;;5.30;;
13704;SDS011;6924;52.122;9.952;2024-01-30T06:31:40;6.13;;;5.53;;
13704;SDS011;6924;52.122;9.952;2024-01-30T06:34:07;5.73;;;5.23;;
13704;SDS011;6924;52.122;9.952;2024-01-30T06:36:33;10.43;;;5.87;;
13704;SDS011;6924;52.122;9.952;2024-01-30T06:39:01;7.30;;;6.60;;
13704;SDS011;6924;52.122;9.952;2024-01-30T06:41:28;6.13;;;5.57;;
13704;SDS011;6924;52.122;9.952;2024-01-30T06:43:54;6.90;;;5.40;;
13704;SDS011;6924;52.122;9.952;2024-01-30T06:46:21;7.73;;;6.20;;
13704;SDS011;6924;52.122;9.952;2024-01-30T06:48:47;5.50;;;4.50;;
13704;SDS011;6924;52.122;9.952;2024-01-30T06:51:14;5.53;;;5.03;;
13704;SDS011;6924;52.122;9.952;2024-01-30T06:53:40;6.40;;;5.27;;
13704;SDS011;6924;52.122;9.952;2024-01-30T06:56:08;9.47;;;5.63;;
13704;SDS011;6924;52.122;9.952;2024-01-30T06:58:34;5.57;;;5.07;;
13704;SDS011;6924;52.122;9.952;2024-01-30T07:01:01;5.13;;;4.63;;
13704;SDS011;6924;52.122;9.952;2024-01-30T07:03:27;8.67;;;5.80;;
13704;SDS011;6924;52.122;9.952;2024-01-30T07:05:53;5.47;;;4.63;;
13704;SDS011;6924;52.122;9.952;2024-01-30T07:08:20;5.43;;;4.87;;
13704;SDS011;6924;52.122;9.952;2024-01-30T07:10:47;7.83;;;5.27;;
13704;SDS011;6924;52.122;9.952;2024-01-30T07:13:15;5.77;;;5.27;;
13704;SDS011;6924;52.122;9.952;2024-01-30T07:15:42;5.20;;;4.67;;
13704;SDS011;6924;52.122;9.952;2024-01-30T07:18:08;6.00;;;5.40;;
13704;SDS011;6924;52.122;9.952;2024-01-30T07:20:35;6.80;;;5.90;;
13704;SDS011;6924;52.122;9.952;2024-01-30T07:23:02;6.93;;;6.23;;
13704;SDS011;6924;52.122;9.952;2024-01-30T07:25:29;8.00;;;5.37;;
13704;SDS011;6924;52.122;9.952;2024-01-30T07:27:55;6.37;;;5.77;;
13704;SDS011;6924;52.122;9.952;2024-01-30T07:30:24;16.77;;;10.97;;
13704;SDS011;6924;52.122;9.952;2024-01-30T07:32:51;10.67;;;8.43;;
13704;SDS011;6924;52.122;9.952;2024-01-30T07:35:17;24.13;;;15.97;;
13704;SDS011;6924;52.122;9.952;2024-01-30T07:37:44;22.93;;;13.47;;
13704;SDS011;6924;52.122;9.952;2024-01-30T07:40:10;15.50;;;11.63;;
13704;SDS011;6924;52.122;9.952;2024-01-30T07:42:37;11.87;;;8.20;;
13704;SDS011;6924;52.122;9.952;2024-01-30T07:45:03;8.97;;;8.07;;
13704;SDS011;6924;52.122;9.952;2024-01-30T07:47:32;8.27;;;7.07;;
13704;SDS011;6924;52.122;9.952;2024-01-30T07:49:58;7.33;;;5.77;;
13704;SDS011;6924;52.122;9.952;2024-01-30T07:52:25;10.57;;;6.70;;
13704;SDS011;6924;52.122;9.952;2024-01-30T07:54:51;8.33;;;5.60;;
13704;SDS011;6924;52.122;9.952;2024-01-30T07:57:18;7.73;;;6.33;;
13704;SDS011;6924;52.122;9.952;2024-01-30T07:59:44;9.47;;;5.90;;
13704;SDS011;6924;52.122;9.952;2024-01-30T08:02:11;6.83;;;6.23;;
13704;SDS011;6924;52.122;9.952;2024-01-30T08:04:39;9.20;;;6.30;;
13704;SDS011;6924;52.122;9.952;2024-01-30T08:07:06;8.73;;;6.90;;
13704;SDS011;6924;52.122;9.952;2024-01-30T08:09:32;6.73;;;6.03;;
13704;SDS011;6924;52.122;9.952;2024-01-30T08:11:59;6.10;;;5.50;;
13704;SDS011;6924;52.122;9.952;2024-01-30T08:14:25;7.10;;;6.27;;
13704;SDS011;6924;52.122;9.952;2024-01-30T08:16:52;6.00;;;5.40;;
13704;SDS011;6924;52.122;9.952;2024-01-30T08:19:18;6.60;;;5.60;;
13704;SDS011;6924;52.122;9.952;2024-01-30T08:21:46;6.47;;;5.87;;
13704;SDS011;6924;52.122;9.952;2024-01-30T08:24:12;6.67;;;5.67;;
13704;SDS011;6924;52.122;9.952;2024-01-30T08:26:39;6.03;;;5.20;;
13704;SDS011;6924;52.122;9.952;2024-01-30T08:29:05;7.00;;;5.47;;
13704;SDS011;6924;52.122;9.952;2024-01-30T08:31:32;6.23;;;5.57;;
13704;SDS011;6924;52.122;9.952;2024-01-30T08:33:58;7.33;;;6.63;;
13704;SDS011;6924;52.122;9.952;2024-01-30T08:36:25;8.70;;;5.60;;
13704;SDS011;6924;52.122;9.952;2024-01-30T08:38:53;7.53;;;6.00;;
13704;SDS011;6924;52.122;9.952;2024-01-30T08:41:19;6.87;;;5.80;;
13704;SDS011;6924;52.122;9.952;2024-01-30T08:43:46;6.63;;;6.03;;
13704;SDS011;6924;52.122;9.952;2024-01-30T08:46:12;6.43;;;5.83;;
13704;SDS011;6924;52.122;9.952;2024-01-30T08:48:39;10.13;;;5.83;;
13704;SDS011;6924;52.122;9.952;2024-01-30T08:51:07;7.13;;;5.73;;
13704;SDS011;6924;52.122;9.952;2024-01-30T08:53:34;6.97;;;6.27;;
13704;SDS011;6924;52.122;9.952;2024-01-30T08:56:03;7.67;;;5.80;;
13704;SDS011;6924;52.122;9.952;2024-01-30T08:58:30;6.40;;;5.47;;
13704;SDS011;6924;52.122;9.952;2024-01-30T09:00:57;5.60;;;5.10;;
13704;SDS011;6924;52.122;9.952;2024-01-30T09:03:23;7.00;;;5.03;;
13704;SDS011;6924;52.122;9.952;2024-01-30T09:05:50;5.93;;;5.33;;
13704;SDS011;6924;52.122;9.952;2024-01-30T09:08:16;5.60;;;5.10;;
13704;SDS011;6924;52.122;9.952;2024-01-30T09:10:43;6.03;;;5.43;;
13704;SDS011;6924;52.122;9.952;2024-01-30T09:13:11;7.10;;;5.17;;
13704;SDS011;6924;52.122;9.952;2024-01-30T09:15:37;6.83;;;4.10;;
13704;SDS011;6924;52.122;9.952;2024-01-30T09:18:04;9.77;;;5.80;;
13704;SDS011;6924;52.122;9.952;2024-01-30T09:20:31;5.47;;;4.20;;
13704;SDS011;6924;52.122;9.952;2024-01-30T09:22:57;5.97;;;5.23;;
13704;SDS011;6924;52.122;9.952;2024-01-30T09:25:24;5.23;;;4.73;;
13704;SDS011;6924;52.122;9.952;2024-01-30T09:27:50;5.37;;;4.87;;
13704;SDS011;6924;52.122;9.952;2024-01-30T09:30:19;5.63;;;4.93;;
13704;SDS011;6924;52.122;9.952;2024-01-30T09:32:46;7.47;;;4.50;;
13704;SDS011;6924;52.122;9.952;2024-01-30T09:35:12;5.90;;;4.73;;
13704;SDS011;6924;52.122;9.952;2024-01-30T09:37:39;6.90;;;5.27;;
13704;SDS011;6924;52.122;9.952;2024-01-30T09:40:06;5.73;;;4.83;;
13704;SDS011;6924;52.122;9.952;2024-01-30T09:42:35;7.27;;;5.27;;
13704;SDS011;6924;52.122;9.952;2024-01-30T09:45:02;6.10;;;5.50;;
13704;SDS011;6924;52.122;9.952;2024-01-30T09:47:32;6.93;;;4.80;;
13704;SDS011;6924;52.122;9.952;2024-01-30T09:50:02;6.77;;;5.77;;
13704;SDS011;6924;52.122;9.952;2024-01-30T09:52:31;6.47;;;5.47;;
13704;SDS011;6924;52.122;9.952;2024-01-30T09:54:57;8.50;;;5.50;;
13704;SDS011;6924;52.122;9.952;2024-01-30T09:57:26;5.53;;;5.03;;
13704;SDS011;6924;52.122;9.952;2024-01-30T09:59:52;8.00;;;5.10;;
13704;SDS011;6924;52.122;9.952;2024-01-30T10:02:20;7.23;;;4.87;;
13704;SDS011;6924;52.122;9.952;2024-01-30T10:04:48;6.13;;;5.10;;
13704;SDS011;6924;52.122;9.952;2024-01-30T10:07:15;5.83;;;5.13;;
13704;SDS011;6924;52.122;9.952;2024-01-30T10:09:42;5.57;;;4.83;;
13704;SDS011;6924;52.122;9.952;2024-01-30T10:12:08;6.53;;;5.93;;
13704;SDS011;6924;52.122;9.952;2024-01-30T10:14:37;5.53;;;4.53;;
13704;SDS011;6924;52.122;9.952;2024-01-30T10:17:04;6.60;;;4.83;;
13704;SDS011;6924;52.122;9.952;2024-01-30T10:19:30;5.10;;;4.57;;
13704;SDS011;6924;52.122;9.952;2024-01-30T10:21:58;6.33;;;5.73;;
13704;SDS011;6924;52.122;9.952;2024-01-30T10:24:26;5.30;;;4.80;;
13704;SDS011;6924;52.122;9.952;2024-01-30T10:26:54;7.97;;;4.33;;
13704;SDS011;6924;52.122;9.952;2024-01-30T10:29:20;5.30;;;4.80;;
13704;SDS011;6924;52.122;9.952;2024-01-30T10:31:57;5.63;;;5.13;;
13704;SDS011;6924;52.122;9.952;2024-01-30T10:34:23;5.73;;;4.47;;
13704;SDS011;6924;52.122;9.952;2024-01-30T10:36:50;5.10;;;4.53;;
13704;SDS011;6924;52.122;9.952;2024-01-30T10:39:27;5.23;;;4.67;;
13704;SDS011;6924;52.122;9.952;2024-01-30T10:41:55;5.83;;;5.23;;
13704;SDS011;6924;52.122;9.952;2024-01-30T10:44:25;6.43;;;5.30;;
13704;SDS011;6924;52.122;9.952;2024-01-30T10:46:56;5.90;;;5.37;;
13704;SDS011;6924;52.122;9.952;2024-01-30T10:49:29;5.57;;;4.97;;
13704;SDS011;6924;52.122;9.952;2024-01-30T10:51:56;4.90;;;4.50;;
13704;SDS011;6924;52.122;9.952;2024-01-30T10:54:25;5.13;;;4.53;;
13704;SDS011;6924;52.122;9.952;2024-01-30T10:56:53;6.57;;;5.27;;
13704;SDS011;6924;52.122;9.952;2024-01-30T10:59:20;6.37;;;5.03;;
13704;SDS011;6924;52.122;9.952;2024-01-30T11:01:50;6.43;;;4.97;;
13704;SDS011;6924;52.122;9.952;2024-01-30T11:04:17;5.30;;;4.73;;
13704;SDS011;6924;52.122;9.952;2024-01-30T11:06:43;7.07;;;5.63;;
13704;SDS011;6924;52.122;9.952;2024-01-30T11:09:11;5.20;;;4.70;;
13704;SDS011;6924;52.122;9.952;2024-01-30T11:11:48;5.30;;;4.77;;
13704;SDS011;6924;52.122;9.952;2024-01-30T11:14:15;8.00;;;5.60;;
13704;SDS011;6924;52.122;9.952;2024-01-30T11:16:51;5.87;;;4.93;;
13704;SDS011;6924;52.122;9.952;2024-01-30T11:19:22;5.10;;;4.60;;
13704;SDS011;6924;52.122;9.952;2024-01-30T11:21:50;6.63;;;5.40;;
13704;SDS011;6924;52.122;9.952;2024-01-30T11:24:20;6.07;;;4.70;;
13704;SDS011;6924;52.122;9.952;2024-01-30T11:26:47;4.90;;;4.33;;
13704;SDS011;6924;52.122;9.952;2024-01-30T11:29:15;6.13;;;4.90;;
13704;SDS011;6924;52.122;9.952;2024-01-30T11:31:51;5.40;;;4.90;;
13704;SDS011;6924;52.122;9.952;2024-01-30T11:34:18;8.30;;;5.23;;
13704;SDS011;6924;52.122;9.952;2024-01-30T11:36:46;6.40;;;5.77;;
13704;SDS011;6924;52.122;9.952;2024-01-30T11:39:24;5.27;;;4.77;;
13704;SDS011;6924;52.122;9.952;2024-01-30T11:41:52;5.73;;;5.03;;
13704;SDS011;6924;52.122;9.952;2024-01-30T11:44:19;5.50;;;5.00;;
13704;SDS011;6924;52.122;9.952;2024-01-30T11:46:46;6.43;;;4.37;;
13704;SDS011;6924;52.122;9.952;2024-01-30T11:49:14;6.63;;;5.30;;
13704;SDS011;6924;52.122;9.952;2024-01-30T11:51:40;5.90;;;5.40;;
13704;SDS011;6924;52.122;9.952;2024-01-30T11:54:07;5.00;;;4.60;;
13704;SDS011;6924;52.122;9.952;2024-01-30T11:56:35;5.50;;;5.00;;
13704;SDS011;6924;52.122;9.952;2024-01-30T11:59:03;5.20;;;4.70;;
13704;SDS011;6924;52.122;9.952;2024-01-30T12:01:30;5.97;;;4.37;;
13704;SDS011;6924;52.122;9.952;2024-01-30T12:03:57;7.68;;;5.68;;
13704;SDS011;6924;52.122;9.952;2024-01-30T12:06:24;4.93;;;4.53;;
13704;SDS011;6924;52.122;9.952;2024-01-30T12:08:57;6.17;;;4.93;;
13704;SDS011;6924;52.122;9.952;2024-01-30T12:11:24;5.47;;;4.73;;
13704;SDS011;6924;52.122;9.952;2024-01-30T12:13:52;4.83;;;4.03;;
13704;SDS011;6924;52.122;9.952;2024-01-30T12:16:19;6.13;;;4.90;;
13704;SDS011;6924;52.122;9.952;2024-01-30T12:18:46;6.37;;;4.40;;
13704;SDS011;6924;52.122;9.952;2024-01-30T12:21:12;4.97;;;4.47;;
13704;SDS011;6924;52.122;9.952;2024-01-30T12:23:42;4.90;;;4.37;;
13704;SDS011;6924;52.122;9.952;2024-01-30T12:26:08;6.20;;;4.83;;
13704;SDS011;6924;52.122;9.952;2024-01-30T12:28:35;6.27;;;4.77;;
13704;SDS011;6924;52.122;9.952;2024-01-30T12:31:03;6.07;;;4.40;;
13704;SDS011;6924;52.122;9.952;2024-01-30T12:33:30;5.03;;;4.63;;
13704;SDS011;6924;52.122;9.952;2024-01-30T12:35:57;5.33;;;4.67;;
13704;SDS011;6924;52.122;9.952;2024-01-30T12:38:27;5.57;;;4.63;;
13704;SDS011;6924;52.122;9.952;2024-01-30T12:40:54;5.60;;;4.80;;
13704;SDS011;6924;52.122;9.952;2024-01-30T12:43:21;5.23;;;4.73;;
13704;SDS011;6924;52.122;9.952;2024-01-30T12:45:48;5.20;;;4.50;;
13704;SDS011;6924;52.122;9.952;2024-01-30T12:48:15;6.27;;;5.47;;
13704;SDS011;6924;52.122;9.952;2024-01-30T12:50:42;6.73;;;4.87;;
13704;SDS011;6924;52.122;9.952;2024-01-30T12:53:08;5.67;;;3.90;;
13704;SDS011;6924;52.122;9.952;2024-01-30T12:55:35;5.93;;;4.97;;
13704;SDS011;6924;52.122;9.952;2024-01-30T12:58:01;7.20;;;4.30;;
13704;SDS011;6924;52.122;9.952;2024-01-30T13:00:28;4.83;;;4.27;;
13704;SDS011;6924;52.122;9.952;2024-01-30T13:02:54;5.43;;;4.30;;
13704;SDS011;6924;52.122;9.952;2024-01-30T13:05:22;5.07;;;4.57;;
13704;SDS011;6924;52.122;9.952;2024-01-30T13:07:49;6.03;;;5.43;;
13704;SDS011;6924;52.122;9.952;2024-01-30T13:10:15;5.97;;;4.23;;
13704;SDS011;6924;52.122;9.952;2024-01-30T13:12:42;4.43;;;3.97;;
13704;SDS011;6924;52.122;9.952;2024-01-30T13:15:08;6.40;;;4.27;;
13704;SDS011;6924;52.122;9.952;2024-01-30T13:17:36;7.33;;;4.50;;
13704;SDS011;6924;52.122;9.952;2024-01-30T13:20:03;4.33;;;3.93;;
13704;SDS011;6924;52.122;9.952;2024-01-30T13:22:31;5.80;;;4.77;;
13704;SDS011;6924;52.122;9.952;2024-01-30T13:24:58;5.83;;;4.30;;
13704;SDS011;6924;52.122;9.952;2024-01-30T13:27:24;4.83;;;4.37;;
13704;SDS011;6924;52.122;9.952;2024-01-30T13:29:51;5.50;;;4.97;;
13704;SDS011;6924;52.122;9.952;2024-01-30T13:32:17;4.63;;;4.23;;
13704;SDS011;6924;52.122;9.952;2024-01-30T13:34:43;4.97;;;4.47;;
13704;SDS011;6924;52.122;9.952;2024-01-30T13:37:10;5.20;;;4.67;;
13704;SDS011;6924;52.122;9.952;2024-01-30T13:39:38;5.50;;;4.57;;
13704;SDS011;6924;52.122;9.952;2024-01-30T13:42:05;5.70;;;4.63;;
13704;SDS011;6924;52.122;9.952;2024-01-30T13:44:31;5.40;;;4.40;;
13704;SDS011;6924;52.122;9.952;2024-01-30T13:46:57;4.63;;;4.23;;
13704;SDS011;6924;52.122;9.952;2024-01-30T13:49:24;5.90;;;4.30;;
13704;SDS011;6924;52.122;9.952;2024-01-30T13:51:50;5.50;;;4.67;;
13704;SDS011;6924;52.122;9.952;2024-01-30T13:54:17;5.30;;;4.77;;
13704;SDS011;6924;52.122;9.952;2024-01-30T13:56:45;4.60;;;4.23;;
13704;SDS011;6924;52.122;9.952;2024-01-30T13:59:11;6.40;;;4.13;;
13704;SDS011;6924;52.122;9.952;2024-01-30T14:01:37;5.97;;;4.30;;
13704;SDS011;6924;52.122;9.952;2024-01-30T14:04:04;4.63;;;4.23;;
13704;SDS011;6924;52.122;9.952;2024-01-30T14:06:30;5.30;;;4.80;;
13704;SDS011;6924;52.122;9.952;2024-01-30T14:08:57;6.23;;;4.87;;
13704;SDS011;6924;52.122;9.952;2024-01-30T14:11:23;5.10;;;4.60;;
13704;SDS011;6924;52.122;9.952;2024-01-30T14:13:51;5.00;;;4.60;;
13704;SDS011;6924;52.122;9.952;2024-01-30T14:16:17;5.57;;;4.50;;
13704;SDS011;6924;52.122;9.952;2024-01-30T14:18:44;4.97;;;4.40;;
13704;SDS011;6924;52.122;9.952;2024-01-30T14:21:11;4.63;;;4.20;;
13704;SDS011;6924;52.122;9.952;2024-01-30T14:23:37;5.00;;;4.33;;
13704;SDS011;6924;52.122;9.952;2024-01-30T14:26:04;5.30;;;4.80;;
13704;SDS011;6924;52.122;9.952;2024-01-30T14:28:31;4.87;;;4.37;;
13704;SDS011;6924;52.122;9.952;2024-01-30T14:30:58;5.47;;;4.90;;
13704;SDS011;6924;52.122;9.952;2024-01-30T14:33:25;5.20;;;4.17;;
13704;SDS011;6924;52.122;9.952;2024-01-30T14:35:51;6.17;;;5.10;;
13704;SDS011;6924;52.122;9.952;2024-01-30T14:38:18;4.47;;;4.03;;
13704;SDS011;6924;52.122;9.952;2024-01-30T14:40:45;5.90;;;4.53;;
13704;SDS011;6924;52.122;9.952;2024-01-30T14:43:11;5.23;;;4.73;;
13704;SDS011;6924;52.122;9.952;2024-01-30T14:45:39;5.40;;;4.90;;
13704;SDS011;6924;52.122;9.952;2024-01-30T14:48:08;8.57;;;4.83;;
13704;SDS011;6924;52.122;9.952;2024-01-30T14:50:34;6.27;;;5.03;;
13704;SDS011;6924;52.122;9.952;2024-01-30T14:53:01;6.23;;;4.70;;
13704;SDS011;6924;52.122;9.952;2024-01-30T14:55:27;5.57;;;4.57;;
13704;SDS011;6924;52.122;9.952;2024-01-30T14:57:54;6.20;;;4.50;;
13704;SDS011;6924;52.122;9.952;2024-01-30T15:00:20;4.73;;;4.30;;